Marine Rouge — JG5115 — position and weather

sailwx.info

Track history (hours):
 
Tides and Currents Weather Stations Pressure Air Temp Water Temp Dewpoint Dewpoint Depression Visibility Wind Speed Wind Dir Waves Ship Positions

Marine Rouge

Last reported at 2014-Aug-30 01:33 UTC. Time now 2014-Aug-30 02:32 UTC.
Position N 35°27' E 139°39'.

Length 52 m; draft 2.8 m.

Type: Passenger vessel. MMSI: 431000518.

Date/timePositionNaut miles runAvg speedWind from/ knotsBaromVisibWave heightAir tempDewpointWater temp
2014-Aug-30 01:33N 35°27' E 139°39'0 0.0
2014-Aug-30 00:33N 35°27' E 139°39'0 0.0
2014-Aug-29 12:34N 35°27' E 139°39'1 0.8
2014-Aug-29 11:34N 35°28' E 139°39'1 0.6
2014-Aug-29 10:33N 35°27' E 139°39'1 0.5
2014-Aug-29 09:34N 35°27' E 139°39'0 0.0
2014-Aug-29 08:34N 35°27' E 139°39'1 0.5
2014-Aug-29 07:34N 35°27' E 139°39'1 0.5
2014-Aug-29 06:34N 35°27' E 139°39'0 0.1
2014-Aug-29 05:34N 35°27' E 139°39'0 0.1
2014-Aug-29 04:34N 35°27' E 139°39'0 0.5
2014-Aug-29 03:33N 35°27' E 139°39'1 0.5
2014-Aug-29 02:33N 35°27' E 139°39'1 0.1
2014-Aug-28 12:21N 35°28' E 139°39'0 0.3
2014-Aug-28 11:34N 35°27' E 139°39'1 1.5
2014-Aug-28 10:34N 35°27' E 139°41'1 1.3
2014-Aug-28 09:34N 35°27' E 139°39'0 0.2
2014-Aug-28 08:33N 35°27' E 139°39'1 0.6
2014-Aug-28 07:34N 35°27' E 139°39'1 0.7
2014-Aug-28 06:33N 35°27' E 139°39'0 0.1
2014-Aug-28 05:34N 35°27' E 139°39'0 0.2
2014-Aug-28 04:33N 35°27' E 139°39'0 0.4
2014-Aug-28 03:33N 35°27' E 139°39'1 0.5
2014-Aug-28 02:34N 35°27' E 139°39'0 0.0
2014-Aug-28 01:34N 35°27' E 139°39'0 0.0
2014-Aug-28 00:33N 35°27' E 139°39'0 0.0
2014-Aug-27 12:28N 35°27' E 139°39'3 2.8
2014-Aug-27 11:33N 35°28' E 139°42'3 2.5
2014-Aug-27 10:33N 35°28' E 139°39'1 1.1
2014-Aug-27 09:33N 35°27' E 139°39'0 0.0
2014-Aug-27 08:33N 35°27' E 139°39'1 0.8
2014-Aug-27 07:33N 35°27' E 139°39'1 0.8
2014-Aug-27 06:33N 35°27' E 139°39'0 0.1
2014-Aug-27 05:33N 35°27' E 139°39'0 0.1
2014-Aug-27 04:33N 35°27' E 139°39'1 0.7
2014-Aug-27 03:34N 35°27' E 139°39'1 0.7
2014-Aug-27 02:33N 35°27' E 139°39'0 0.0
2014-Aug-27 01:33N 35°27' E 139°39'0 0.0
2014-Aug-27 00:33N 35°27' E 139°39'0 0.0
2014-Aug-26 12:33N 35°27' E 139°39'1 0.7
2014-Aug-26 11:33N 35°28' E 139°39'2 1.8
2014-Aug-26 10:33N 35°27' E 139°41'2 1.6
2014-Aug-26 09:33N 35°27' E 139°39'0 0.2
2014-Aug-26 08:33N 35°27' E 139°39'0 0.5
2014-Aug-26 07:33N 35°27' E 139°39'1 0.6
2014-Aug-26 06:33N 35°27' E 139°39'0 0.1
2014-Aug-26 05:33N 35°27' E 139°39'0 0.1
2014-Aug-26 04:33N 35°27' E 139°39'1 0.5
2014-Aug-26 03:33N 35°27' E 139°39'1 0.5
2014-Aug-26 02:34N 35°27' E 139°39'0 0.0
2014-Aug-26 01:33N 35°27' E 139°39'1 0.0
2014-Aug-25 12:33N 35°27' E 139°39'1 0.6
2014-Aug-25 11:33N 35°28' E 139°39'1 0.5
2014-Aug-25 10:33N 35°27' E 139°39'1 0.5
2014-Aug-25 09:33N 35°27' E 139°39'0 0.0
2014-Aug-25 08:33N 35°27' E 139°39'3 2.5
2014-Aug-25 07:33N 35°28' E 139°41'3 2.5
2014-Aug-25 06:33N 35°27' E 139°39'0 0.0
2014-Aug-25 05:33N 35°27' E 139°39'0 0.0
2014-Aug-25 04:33N 35°27' E 139°39'1 0.5
2014-Aug-25 03:34N 35°27' E 139°39'1 0.5
2014-Aug-25 02:33N 35°27' E 139°39'0 0.0
2014-Aug-25 01:33N 35°27' E 139°39'0 0.0
2014-Aug-25 00:33N 35°27' E 139°39'1 0.0
2014-Aug-24 12:33N 35°27' E 139°39'1 0.6
2014-Aug-24 11:33N 35°28' E 139°39'1 0.6
2014-Aug-24 10:34N 35°27' E 139°39'1 0.5
2014-Aug-24 09:33N 35°27' E 139°39'0 0.0
2014-Aug-24 08:34N 35°27' E 139°39'1 0.5
2014-Aug-24 07:33N 35°27' E 139°39'1 0.5
2014-Aug-24 06:34N 35°27' E 139°39'0 0.1
2014-Aug-24 05:33N 35°27' E 139°39'0 0.1
2014-Aug-24 04:33N 35°27' E 139°39'1 1.3
2014-Aug-24 03:33N 35°27' E 139°41'1 1.3
2014-Aug-24 02:33N 35°27' E 139°39'0 0.0
2014-Aug-24 01:33N 35°27' E 139°39'0 0.0
2014-Aug-24 00:33N 35°27' E 139°39'2 0.1
2014-Aug-23 03:33N 35°27' E 139°42'2 2.0
2014-Aug-23 02:33N 35°27' E 139°39'0 0.0
2014-Aug-23 01:33N 35°27' E 139°39'0 0.0
2014-Aug-23 00:33N 35°27' E 139°39'0 0.0
2014-Aug-22 12:33N 35°27' E 139°39'2 2.2
2014-Aug-22 11:33N 35°28' E 139°41'2 2.0
2014-Aug-22 10:34N 35°27' E 139°39'1 0.6
2014-Aug-22 09:33N 35°27' E 139°39'0 0.0
2014-Aug-22 08:33N 35°27' E 139°39'1 0.5
2014-Aug-22 07:34N 35°27' E 139°39'1 0.5
2014-Aug-22 06:33N 35°27' E 139°39'0 0.1
2014-Aug-22 05:33N 35°27' E 139°39'0 0.1
2014-Aug-22 04:33N 35°27' E 139°39'1 0.5
2014-Aug-22 03:34N 35°27' E 139°39'1 0.5
2014-Aug-22 02:33N 35°27' E 139°39'0 0.0
2014-Aug-22 01:33N 35°27' E 139°39'0 0.0
2014-Aug-22 00:33N 35°27' E 139°39'1 0.0
2014-Aug-21 12:33N 35°27' E 139°39'1 1.1
2014-Aug-21 11:34N 35°28' E 139°40'1 1.1
2014-Aug-21 10:34N 35°27' E 139°39'1 0.5
2014-Aug-21 09:33N 35°27' E 139°39'0 0.1
2014-Aug-21 08:33N 35°27' E 139°39'1 0.6
2014-Aug-21 07:33N 35°27' E 139°39'1 0.7
2014-Aug-21 06:34N 35°27' E 139°39'0 0.0
2014-Aug-21 05:33N 35°27' E 139°39'0 0.0
2014-Aug-21 04:33N 35°27' E 139°39'1 0.6
2014-Aug-21 03:33N 35°27' E 139°39'1 0.6
2014-Aug-21 02:33N 35°27' E 139°39'0 0.0
2014-Aug-21 01:34N 35°27' E 139°39'1 0.0
2014-Aug-20 12:33N 35°27' E 139°39'1 0.7
2014-Aug-20 11:33N 35°28' E 139°39'1 0.7
2014-Aug-20 10:33N 35°27' E 139°39'1 0.5
2014-Aug-20 09:33N 35°27' E 139°39'0 0.0
2014-Aug-20 08:33N 35°27' E 139°39'1 0.6
2014-Aug-20 07:34N 35°27' E 139°39'1 0.6
2014-Aug-20 06:33N 35°27' E 139°39'0 0.1
2014-Aug-20 05:33N 35°27' E 139°39'0 0.1
2014-Aug-20 04:33N 35°27' E 139°39'1 0.5
2014-Aug-20 03:33N 35°27' E 139°39'1 0.5
2014-Aug-20 02:33N 35°27' E 139°39'  
Track history (hours):
 
Tides and Currents Weather Stations Pressure Air Temp Water Temp Dewpoint Dewpoint Depression Visibility Wind Speed Wind Dir Waves Ship Positions

Marine Rouge

Last reported at 2014-Aug-30 01:33 UTC. Time now 2014-Aug-30 02:32 UTC.
Position N 35°27' E 139°39'.

Length 52 m; draft 2.8 m.

Type: Passenger vessel. MMSI: 431000518.

Date/timePositionNaut miles runAvg speedWind from/ knotsBaromVisibWave heightAir tempDewpointWater temp
2014-Aug-30 01:33N 35°27' E 139°39'0 0.0
2014-Aug-30 00:33N 35°27' E 139°39'0 0.0
2014-Aug-29 12:34N 35°27' E 139°39'1 0.8
2014-Aug-29 11:34N 35°28' E 139°39'1 0.6
2014-Aug-29 10:33N 35°27' E 139°39'1 0.5
2014-Aug-29 09:34N 35°27' E 139°39'0 0.0
2014-Aug-29 08:34N 35°27' E 139°39'1 0.5
2014-Aug-29 07:34N 35°27' E 139°39'1 0.5
2014-Aug-29 06:34N 35°27' E 139°39'0 0.1
2014-Aug-29 05:34N 35°27' E 139°39'0 0.1
2014-Aug-29 04:34N 35°27' E 139°39'0 0.5
2014-Aug-29 03:33N 35°27' E 139°39'1 0.5
2014-Aug-29 02:33N 35°27' E 139°39'1 0.1
2014-Aug-28 12:21N 35°28' E 139°39'0 0.3
2014-Aug-28 11:34N 35°27' E 139°39'1 1.5
2014-Aug-28 10:34N 35°27' E 139°41'1 1.3
2014-Aug-28 09:34N 35°27' E 139°39'0 0.2
2014-Aug-28 08:33N 35°27' E 139°39'1 0.6
2014-Aug-28 07:34N 35°27' E 139°39'1 0.7
2014-Aug-28 06:33N 35°27' E 139°39'0 0.1
2014-Aug-28 05:34N 35°27' E 139°39'0 0.2
2014-Aug-28 04:33N 35°27' E 139°39'0 0.4
2014-Aug-28 03:33N 35°27' E 139°39'1 0.5
2014-Aug-28 02:34N 35°27' E 139°39'0 0.0
2014-Aug-28 01:34N 35°27' E 139°39'0 0.0
2014-Aug-28 00:33N 35°27' E 139°39'0 0.0
2014-Aug-27 12:28N 35°27' E 139°39'3 2.8
2014-Aug-27 11:33N 35°28' E 139°42'3 2.5
2014-Aug-27 10:33N 35°28' E 139°39'1 1.1
2014-Aug-27 09:33N 35°27' E 139°39'0 0.0
2014-Aug-27 08:33N 35°27' E 139°39'1 0.8
2014-Aug-27 07:33N 35°27' E 139°39'1 0.8
2014-Aug-27 06:33N 35°27' E 139°39'0 0.1
2014-Aug-27 05:33N 35°27' E 139°39'0 0.1
2014-Aug-27 04:33N 35°27' E 139°39'1 0.7
2014-Aug-27 03:34N 35°27' E 139°39'1 0.7
2014-Aug-27 02:33N 35°27' E 139°39'0 0.0
2014-Aug-27 01:33N 35°27' E 139°39'0 0.0
2014-Aug-27 00:33N 35°27' E 139°39'0 0.0
2014-Aug-26 12:33N 35°27' E 139°39'1 0.7
2014-Aug-26 11:33N 35°28' E 139°39'2 1.8
2014-Aug-26 10:33N 35°27' E 139°41'2 1.6
2014-Aug-26 09:33N 35°27' E 139°39'0 0.2
2014-Aug-26 08:33N 35°27' E 139°39'0 0.5
2014-Aug-26 07:33N 35°27' E 139°39'1 0.6
2014-Aug-26 06:33N 35°27' E 139°39'0 0.1
2014-Aug-26 05:33N 35°27' E 139°39'0 0.1
2014-Aug-26 04:33N 35°27' E 139°39'1 0.5
2014-Aug-26 03:33N 35°27' E 139°39'1 0.5
2014-Aug-26 02:34N 35°27' E 139°39'0 0.0
2014-Aug-26 01:33N 35°27' E 139°39'1 0.0
2014-Aug-25 12:33N 35°27' E 139°39'1 0.6
2014-Aug-25 11:33N 35°28' E 139°39'1 0.5
2014-Aug-25 10:33N 35°27' E 139°39'1 0.5
2014-Aug-25 09:33N 35°27' E 139°39'0 0.0
2014-Aug-25 08:33N 35°27' E 139°39'3 2.5
2014-Aug-25 07:33N 35°28' E 139°41'3 2.5
2014-Aug-25 06:33N 35°27' E 139°39'0 0.0
2014-Aug-25 05:33N 35°27' E 139°39'0 0.0
2014-Aug-25 04:33N 35°27' E 139°39'1 0.5
2014-Aug-25 03:34N 35°27' E 139°39'1 0.5
2014-Aug-25 02:33N 35°27' E 139°39'0 0.0
2014-Aug-25 01:33N 35°27' E 139°39'0 0.0
2014-Aug-25 00:33N 35°27' E 139°39'1 0.0
2014-Aug-24 12:33N 35°27' E 139°39'1 0.6
2014-Aug-24 11:33N 35°28' E 139°39'1 0.6
2014-Aug-24 10:34N 35°27' E 139°39'1 0.5
2014-Aug-24 09:33N 35°27' E 139°39'0 0.0
2014-Aug-24 08:34N 35°27' E 139°39'1 0.5
2014-Aug-24 07:33N 35°27' E 139°39'1 0.5
2014-Aug-24 06:34N 35°27' E 139°39'0 0.1
2014-Aug-24 05:33N 35°27' E 139°39'0 0.1
2014-Aug-24 04:33N 35°27' E 139°39'1 1.3
2014-Aug-24 03:33N 35°27' E 139°41'1 1.3
2014-Aug-24 02:33N 35°27' E 139°39'0 0.0
2014-Aug-24 01:33N 35°27' E 139°39'0 0.0
2014-Aug-24 00:33N 35°27' E 139°39'2 0.1
2014-Aug-23 03:33N 35°27' E 139°42'2 2.0
2014-Aug-23 02:33N 35°27' E 139°39'0 0.0
2014-Aug-23 01:33N 35°27' E 139°39'0 0.0
2014-Aug-23 00:33N 35°27' E 139°39'0 0.0
2014-Aug-22 12:33N 35°27' E 139°39'2 2.2
2014-Aug-22 11:33N 35°28' E 139°41'2 2.0
2014-Aug-22 10:34N 35°27' E 139°39'1 0.6
2014-Aug-22 09:33N 35°27' E 139°39'0 0.0
2014-Aug-22 08:33N 35°27' E 139°39'1 0.5
2014-Aug-22 07:34N 35°27' E 139°39'1 0.5
2014-Aug-22 06:33N 35°27' E 139°39'0 0.1
2014-Aug-22 05:33N 35°27' E 139°39'0 0.1
2014-Aug-22 04:33N 35°27' E 139°39'1 0.5
2014-Aug-22 03:34N 35°27' E 139°39'1 0.5
2014-Aug-22 02:33N 35°27' E 139°39'0 0.0
2014-Aug-22 01:33N 35°27' E 139°39'0 0.0
2014-Aug-22 00:33N 35°27' E 139°39'1 0.0
2014-Aug-21 12:33N 35°27' E 139°39'1 1.1
2014-Aug-21 11:34N 35°28' E 139°40'1 1.1
2014-Aug-21 10:34N 35°27' E 139°39'1 0.5
2014-Aug-21 09:33N 35°27' E 139°39'0 0.1
2014-Aug-21 08:33N 35°27' E 139°39'1 0.6
2014-Aug-21 07:33N 35°27' E 139°39'1 0.7
2014-Aug-21 06:34N 35°27' E 139°39'0 0.0
2014-Aug-21 05:33N 35°27' E 139°39'0 0.0
2014-Aug-21 04:33N 35°27' E 139°39'1 0.6
2014-Aug-21 03:33N 35°27' E 139°39'1 0.6
2014-Aug-21 02:33N 35°27' E 139°39'0 0.0
2014-Aug-21 01:34N 35°27' E 139°39'1 0.0
2014-Aug-20 12:33N 35°27' E 139°39'1 0.7
2014-Aug-20 11:33N 35°28' E 139°39'1 0.7
2014-Aug-20 10:33N 35°27' E 139°39'1 0.5
2014-Aug-20 09:33N 35°27' E 139°39'0 0.0
2014-Aug-20 08:33N 35°27' E 139°39'1 0.6
2014-Aug-20 07:34N 35°27' E 139°39'1 0.6
2014-Aug-20 06:33N 35°27' E 139°39'0 0.1
2014-Aug-20 05:33N 35°27' E 139°39'0 0.1
2014-Aug-20 04:33N 35°27' E 139°39'1 0.5
2014-Aug-20 03:33N 35°27' E 139°39'1 0.5
2014-Aug-20 02:33N 35°27' E 139°39'  

Dump ship's entire track history